sensor_id;sensor_type;location;lat;lon;timestamp;temperature;humidity
7046;DHT22;3564;53.326;10.356;2022-08-19T00:02:04;24.20;99.90
7046;DHT22;3564;53.326;10.356;2022-08-19T00:04:35;24.10;99.90
7046;DHT22;3564;53.326;10.356;2022-08-19T00:07:03;24.00;99.90
7046;DHT22;3564;53.326;10.356;2022-08-19T00:09:29;24.00;99.90
7046;DHT22;3564;53.326;10.356;2022-08-19T00:11:55;24.00;99.90
7046;DHT22;3564;53.326;10.356;2022-08-19T00:14:23;23.90;99.90
7046;DHT22;3564;53.326;10.356;2022-08-19T00:16:49;23.90;99.90
7046;DHT22;3564;53.326;10.356;2022-08-19T00:19:19;23.90;99.90
7046;DHT22;3564;53.326;10.356;2022-08-19T00:21:45;23.90;99.90
7046;DHT22;3564;53.326;10.356;2022-08-19T00:24:12;23.90;99.90
7046;DHT22;3564;53.326;10.356;2022-08-19T00:26:40;23.90;99.90
7046;DHT22;3564;53.326;10.356;2022-08-19T00:29:10;23.80;99.90
7046;DHT22;3564;53.326;10.356;2022-08-19T00:31:37;23.80;99.90
7046;DHT22;3564;53.326;10.356;2022-08-19T00:34:03;23.80;99.90
7046;DHT22;3564;53.326;10.356;2022-08-19T00:36:29;23.80;99.90
7046;DHT22;3564;53.326;10.356;2022-08-19T00:38:55;23.80;99.90
7046;DHT22;3564;53.326;10.356;2022-08-19T00:41:21;23.80;99.90
7046;DHT22;3564;53.326;10.356;2022-08-19T00:44:07;23.80;99.90
7046;DHT22;3564;53.326;10.356;2022-08-19T00:46:39;23.70;99.90
7046;DHT22;3564;53.326;10.356;2022-08-19T00:49:27;23.60;99.90
7046;DHT22;3564;53.326;10.356;2022-08-19T00:52:15;23.60;99.90
7046;DHT22;3564;53.326;10.356;2022-08-19T00:54:42;23.70;99.90
7046;DHT22;3564;53.326;10.356;2022-08-19T00:57:12;23.60;99.90
7046;DHT22;3564;53.326;10.356;2022-08-19T00:59:42;23.60;99.90
7046;DHT22;3564;53.326;10.356;2022-08-19T01:02:08;23.60;99.90
7046;DHT22;3564;53.326;10.356;2022-08-19T01:04:33;23.60;99.90
7046;DHT22;3564;53.326;10.356;2022-08-19T01:06:59;23.60;99.90
7046;DHT22;3564;53.326;10.356;2022-08-19T01:09:26;23.60;99.90
7046;DHT22;3564;53.326;10.356;2022-08-19T01:11:52;23.60;99.90
7046;DHT22;3564;53.326;10.356;2022-08-19T01:14:18;23.60;99.90
7046;DHT22;3564;53.326;10.356;2022-08-19T01:16:45;23.50;99.90
7046;DHT22;3564;53.326;10.356;2022-08-19T01:19:42;23.50;99.90
7046;DHT22;3564;53.326;10.356;2022-08-19T01:24:49;23.40;99.90
7046;DHT22;3564;53.326;10.356;2022-08-19T01:27:14;23.40;99.90
7046;DHT22;3564;53.326;10.356;2022-08-19T01:29:41;23.40;99.90
7046;DHT22;3564;53.326;10.356;2022-08-19T01:32:09;23.40;99.90
7046;DHT22;3564;53.326;10.356;2022-08-19T01:34:37;23.30;99.90
7046;DHT22;3564;53.326;10.356;2022-08-19T01:37:07;23.30;99.90
7046;DHT22;3564;53.326;10.356;2022-08-19T01:39:34;23.30;99.90
7046;DHT22;3564;53.326;10.356;2022-08-19T01:41:59;23.30;99.90
7046;DHT22;3564;53.326;10.356;2022-08-19T01:44:28;23.30;99.90
7046;DHT22;3564;53.326;10.356;2022-08-19T01:46:56;23.30;99.90
7046;DHT22;3564;53.326;10.356;2022-08-19T01:49:23;23.30;99.90
7046;DHT22;3564;53.326;10.356;2022-08-19T01:51:50;23.30;99.90
7046;DHT22;3564;53.326;10.356;2022-08-19T01:54:17;23.30;99.90
7046;DHT22;3564;53.326;10.356;2022-08-19T01:56:43;23.30;99.90
7046;DHT22;3564;53.326;10.356;2022-08-19T01:59:14;23.30;99.90
7046;DHT22;3564;53.326;10.356;2022-08-19T02:01:41;23.30;99.90
7046;DHT22;3564;53.326;10.356;2022-08-19T02:04:07;23.30;99.90
7046;DHT22;3564;53.326;10.356;2022-08-19T02:06:33;23.30;99.90
7046;DHT22;3564;53.326;10.356;2022-08-19T02:08:59;23.20;99.90
7046;DHT22;3564;53.326;10.356;2022-08-19T02:11:31;23.20;99.90
7046;DHT22;3564;53.326;10.356;2022-08-19T02:13:57;23.10;99.90
7046;DHT22;3564;53.326;10.356;2022-08-19T02:16:23;23.10;99.90
7046;DHT22;3564;53.326;10.356;2022-08-19T02:18:49;23.10;99.90
7046;DHT22;3564;53.326;10.356;2022-08-19T02:21:20;23.10;99.90
7046;DHT22;3564;53.326;10.356;2022-08-19T02:23:47;23.10;99.90
7046;DHT22;3564;53.326;10.356;2022-08-19T02:26:12;23.10;99.90
7046;DHT22;3564;53.326;10.356;2022-08-19T02:28:39;23.10;99.90
7046;DHT22;3564;53.326;10.356;2022-08-19T02:31:09;23.10;99.90
7046;DHT22;3564;53.326;10.356;2022-08-19T02:33:35;23.10;99.90
7046;DHT22;3564;53.326;10.356;2022-08-19T02:36:04;23.10;99.90
7046;DHT22;3564;53.326;10.356;2022-08-19T02:38:30;23.10;99.90
7046;DHT22;3564;53.326;10.356;2022-08-19T02:40:59;23.00;99.90
7046;DHT22;3564;53.326;10.356;2022-08-19T02:43:28;23.00;99.90
7046;DHT22;3564;53.326;10.356;2022-08-19T02:45:54;23.00;99.90
7046;DHT22;3564;53.326;10.356;2022-08-19T02:48:21;23.00;99.90
7046;DHT22;3564;53.326;10.356;2022-08-19T02:50:49;23.00;99.90
7046;DHT22;3564;53.326;10.356;2022-08-19T02:53:24;23.00;99.90
7046;DHT22;3564;53.326;10.356;2022-08-19T02:55:51;22.90;99.90
7046;DHT22;3564;53.326;10.356;2022-08-19T02:58:17;22.90;99.90
7046;DHT22;3564;53.326;10.356;2022-08-19T03:00:48;22.90;99.90
7046;DHT22;3564;53.326;10.356;2022-08-19T03:03:15;22.90;99.90
7046;DHT22;3564;53.326;10.356;2022-08-19T03:05:42;22.80;99.90
7046;DHT22;3564;53.326;10.356;2022-08-19T03:08:09;22.80;99.90
7046;DHT22;3564;53.326;10.356;2022-08-19T03:10:47;22.80;99.90
7046;DHT22;3564;53.326;10.356;2022-08-19T03:13:16;22.80;99.90
7046;DHT22;3564;53.326;10.356;2022-08-19T03:15:45;22.80;99.90
7046;DHT22;3564;53.326;10.356;2022-08-19T03:18:11;22.80;99.90
7046;DHT22;3564;53.326;10.356;2022-08-19T03:20:41;22.80;99.90
7046;DHT22;3564;53.326;10.356;2022-08-19T03:23:07;22.80;99.90
7046;DHT22;3564;53.326;10.356;2022-08-19T03:25:37;22.80;99.90
7046;DHT22;3564;53.326;10.356;2022-08-19T03:28:03;22.80;99.90
7046;DHT22;3564;53.326;10.356;2022-08-19T03:30:29;22.90;99.90
7046;DHT22;3564;53.326;10.356;2022-08-19T03:32:54;22.80;99.90
7046;DHT22;3564;53.326;10.356;2022-08-19T03:35:23;22.80;99.90
7046;DHT22;3564;53.326;10.356;2022-08-19T03:37:49;22.80;99.90
7046;DHT22;3564;53.326;10.356;2022-08-19T03:40:14;22.90;99.90
7046;DHT22;3564;53.326;10.356;2022-08-19T03:42:41;22.80;99.90
7046;DHT22;3564;53.326;10.356;2022-08-19T03:45:08;22.90;99.90
7046;DHT22;3564;53.326;10.356;2022-08-19T03:47:33;22.90;99.90
7046;DHT22;3564;53.326;10.356;2022-08-19T03:49:59;22.90;99.90
7046;DHT22;3564;53.326;10.356;2022-08-19T03:52:28;22.90;99.90
7046;DHT22;3564;53.326;10.356;2022-08-19T03:54:53;22.90;99.90
7046;DHT22;3564;53.326;10.356;2022-08-19T03:57:19;22.90;99.90
7046;DHT22;3564;53.326;10.356;2022-08-19T03:59:44;22.90;99.90
7046;DHT22;3564;53.326;10.356;2022-08-19T04:02:11;22.90;99.90
7046;DHT22;3564;53.326;10.356;2022-08-19T04:04:40;22.90;99.90
7046;DHT22;3564;53.326;10.356;2022-08-19T04:07:06;22.90;99.90
7046;DHT22;3564;53.326;10.356;2022-08-19T04:09:34;22.90;99.90
7046;DHT22;3564;53.326;10.356;2022-08-19T04:11:59;23.00;99.90
7046;DHT22;3564;53.326;10.356;2022-08-19T04:14:27;22.90;99.90
7046;DHT22;3564;53.326;10.356;2022-08-19T04:16:54;22.90;99.90
7046;DHT22;3564;53.326;10.356;2022-08-19T04:19:20;23.00;99.90
7046;DHT22;3564;53.326;10.356;2022-08-19T04:21:48;22.90;99.90
7046;DHT22;3564;53.326;10.356;2022-08-19T04:24:15;22.90;99.90
7046;DHT22;3564;53.326;10.356;2022-08-19T04:26:41;23.00;99.90
7046;DHT22;3564;53.326;10.356;2022-08-19T04:29:09;22.90;99.90
7046;DHT22;3564;53.326;10.356;2022-08-19T04:31:35;22.90;99.90
7046;DHT22;3564;53.326;10.356;2022-08-19T04:34:07;23.00;99.90
7046;DHT22;3564;53.326;10.356;2022-08-19T04:36:35;23.00;99.90
7046;DHT22;3564;53.326;10.356;2022-08-19T04:39:05;23.00;99.90
7046;DHT22;3564;53.326;10.356;2022-08-19T04:41:31;23.00;99.90
7046;DHT22;3564;53.326;10.356;2022-08-19T04:44:16;23.00;99.90
7046;DHT22;3564;53.326;10.356;2022-08-19T04:46:44;23.00;99.90
7046;DHT22;3564;53.326;10.356;2022-08-19T04:49:09;23.00;99.90
7046;DHT22;3564;53.326;10.356;2022-08-19T04:51:36;23.10;99.90
7046;DHT22;3564;53.326;10.356;2022-08-19T04:54:03;23.00;99.90
7046;DHT22;3564;53.326;10.356;2022-08-19T04:56:29;23.10;99.90
7046;DHT22;3564;53.326;10.356;2022-08-19T04:58:56;23.10;99.90
7046;DHT22;3564;53.326;10.356;2022-08-19T05:01:26;23.00;99.90
7046;DHT22;3564;53.326;10.356;2022-08-19T05:03:55;23.00;99.90
7046;DHT22;3564;53.326;10.356;2022-08-19T05:06:22;23.00;99.90
7046;DHT22;3564;53.326;10.356;2022-08-19T05:08:48;23.00;99.90
7046;DHT22;3564;53.326;10.356;2022-08-19T05:11:29;23.10;99.90
7046;DHT22;3564;53.326;10.356;2022-08-19T05:13:55;23.00;99.90
7046;DHT22;3564;53.326;10.356;2022-08-19T05:16:22;23.10;99.90
7046;DHT22;3564;53.326;10.356;2022-08-19T05:18:49;23.10;99.90
7046;DHT22;3564;53.326;10.356;2022-08-19T05:21:34;23.10;99.90
7046;DHT22;3564;53.326;10.356;2022-08-19T05:24:20;23.10;99.90
7046;DHT22;3564;53.326;10.356;2022-08-19T05:26:48;23.10;99.90
7046;DHT22;3564;53.326;10.356;2022-08-19T05:29:17;23.20;99.90
7046;DHT22;3564;53.326;10.356;2022-08-19T05:31:43;23.20;99.90
7046;DHT22;3564;53.326;10.356;2022-08-19T05:34:09;23.20;99.90
7046;DHT22;3564;53.326;10.356;2022-08-19T05:36:56;23.10;99.90
7046;DHT22;3564;53.326;10.356;2022-08-19T05:39:24;23.20;99.90
7046;DHT22;3564;53.326;10.356;2022-08-19T05:41:54;23.20;99.90
7046;DHT22;3564;53.326;10.356;2022-08-19T05:44:23;23.10;99.90
7046;DHT22;3564;53.326;10.356;2022-08-19T05:46:48;23.10;99.90
7046;DHT22;3564;53.326;10.356;2022-08-19T05:49:15;23.20;99.90
7046;DHT22;3564;53.326;10.356;2022-08-19T05:51:42;23.20;99.90
7046;DHT22;3564;53.326;10.356;2022-08-19T05:54:07;23.20;99.90
7046;DHT22;3564;53.326;10.356;2022-08-19T05:56:34;23.20;99.90
7046;DHT22;3564;53.326;10.356;2022-08-19T05:59:04;23.20;99.90
7046;DHT22;3564;53.326;10.356;2022-08-19T06:01:33;23.20;99.90
7046;DHT22;3564;53.326;10.356;2022-08-19T06:04:00;23.10;99.90
7046;DHT22;3564;53.326;10.356;2022-08-19T06:06:25;23.10;99.90
7046;DHT22;3564;53.326;10.356;2022-08-19T06:08:51;23.10;99.90
7046;DHT22;3564;53.326;10.356;2022-08-19T06:11:24;23.10;99.90
7046;DHT22;3564;53.326;10.356;2022-08-19T06:13:52;23.10;99.90
7046;DHT22;3564;53.326;10.356;2022-08-19T06:16:21;23.00;99.90
7046;DHT22;3564;53.326;10.356;2022-08-19T06:18:51;23.10;99.90
7046;DHT22;3564;53.326;10.356;2022-08-19T06:21:22;23.10;99.90
7046;DHT22;3564;53.326;10.356;2022-08-19T06:23:48;23.10;99.90
7046;DHT22;3564;53.326;10.356;2022-08-19T06:26:18;23.10;99.90
7046;DHT22;3564;53.326;10.356;2022-08-19T06:28:45;23.10;99.90
7046;DHT22;3564;53.326;10.356;2022-08-19T06:31:13;23.10;99.90
7046;DHT22;3564;53.326;10.356;2022-08-19T06:33:40;23.10;99.90
7046;DHT22;3564;53.326;10.356;2022-08-19T06:36:06;23.00;99.90
7046;DHT22;3564;53.326;10.356;2022-08-19T06:38:32;23.00;99.90
7046;DHT22;3564;53.326;10.356;2022-08-19T06:41:04;23.00;99.90
7046;DHT22;3564;53.326;10.356;2022-08-19T06:43:29;22.90;99.90
7046;DHT22;3564;53.326;10.356;2022-08-19T06:45:56;22.90;99.90
7046;DHT22;3564;53.326;10.356;2022-08-19T06:48:21;22.90;99.90
7046;DHT22;3564;53.326;10.356;2022-08-19T06:50:47;22.80;99.90
7046;DHT22;3564;53.326;10.356;2022-08-19T06:53:15;22.80;99.90
7046;DHT22;3564;53.326;10.356;2022-08-19T06:55:40;22.80;99.90
7046;DHT22;3564;53.326;10.356;2022-08-19T06:58:06;22.80;99.90
7046;DHT22;3564;53.326;10.356;2022-08-19T07:00:32;22.70;99.90
7046;DHT22;3564;53.326;10.356;2022-08-19T07:02:59;22.70;99.90
7046;DHT22;3564;53.326;10.356;2022-08-19T07:05:25;22.70;99.90
7046;DHT22;3564;53.326;10.356;2022-08-19T07:07:51;22.70;99.90
7046;DHT22;3564;53.326;10.356;2022-08-19T07:10:17;22.70;99.90
7046;DHT22;3564;53.326;10.356;2022-08-19T07:12:42;22.70;99.90
7046;DHT22;3564;53.326;10.356;2022-08-19T07:15:09;22.60;99.90
7046;DHT22;3564;53.326;10.356;2022-08-19T07:17:36;22.60;99.90
7046;DHT22;3564;53.326;10.356;2022-08-19T07:20:07;22.60;99.90
7046;DHT22;3564;53.326;10.356;2022-08-19T07:22:33;22.60;99.90
7046;DHT22;3564;53.326;10.356;2022-08-19T07:25:00;22.60;99.90
7046;DHT22;3564;53.326;10.356;2022-08-19T07:27:28;22.60;99.90
7046;DHT22;3564;53.326;10.356;2022-08-19T07:29:54;22.60;99.90
7046;DHT22;3564;53.326;10.356;2022-08-19T07:32:19;22.60;99.90
7046;DHT22;3564;53.326;10.356;2022-08-19T07:34:45;22.60;99.90
7046;DHT22;3564;53.326;10.356;2022-08-19T07:37:11;22.60;99.90
7046;DHT22;3564;53.326;10.356;2022-08-19T07:39:38;22.50;99.90
7046;DHT22;3564;53.326;10.356;2022-08-19T07:42:08;22.50;99.90
7046;DHT22;3564;53.326;10.356;2022-08-19T07:44:34;22.40;99.90
7046;DHT22;3564;53.326;10.356;2022-08-19T07:47:01;22.50;99.90
7046;DHT22;3564;53.326;10.356;2022-08-19T07:49:29;22.40;99.90
7046;DHT22;3564;53.326;10.356;2022-08-19T07:51:59;22.50;99.90
7046;DHT22;3564;53.326;10.356;2022-08-19T07:54:29;22.50;99.90
7046;DHT22;3564;53.326;10.356;2022-08-19T07:56:55;22.50;99.90
7046;DHT22;3564;53.326;10.356;2022-08-19T07:59:23;22.50;99.90
7046;DHT22;3564;53.326;10.356;2022-08-19T08:01:49;22.60;99.90
7046;DHT22;3564;53.326;10.356;2022-08-19T08:04:16;22.60;99.90
7046;DHT22;3564;53.326;10.356;2022-08-19T08:07:00;22.60;99.90
7046;DHT22;3564;53.326;10.356;2022-08-19T08:09:45;22.60;99.90
7046;DHT22;3564;53.326;10.356;2022-08-19T08:12:13;22.60;99.90
7046;DHT22;3564;53.326;10.356;2022-08-19T08:14:45;22.60;99.90
7046;DHT22;3564;53.326;10.356;2022-08-19T08:17:14;22.60;99.90
7046;DHT22;3564;53.326;10.356;2022-08-19T08:19:40;22.70;99.90
7046;DHT22;3564;53.326;10.356;2022-08-19T08:22:10;22.70;99.90
7046;DHT22;3564;53.326;10.356;2022-08-19T08:24:56;22.70;99.90
7046;DHT22;3564;53.326;10.356;2022-08-19T08:27:24;22.60;99.90
7046;DHT22;3564;53.326;10.356;2022-08-19T08:29:49;22.60;99.90
7046;DHT22;3564;53.326;10.356;2022-08-19T08:32:15;22.60;99.90
7046;DHT22;3564;53.326;10.356;2022-08-19T08:34:41;22.60;99.90
7046;DHT22;3564;53.326;10.356;2022-08-19T08:37:07;22.60;99.90
7046;DHT22;3564;53.326;10.356;2022-08-19T08:39:32;22.60;99.90
7046;DHT22;3564;53.326;10.356;2022-08-19T08:42:19;22.60;99.90
7046;DHT22;3564;53.326;10.356;2022-08-19T08:44:59;22.60;99.90
7046;DHT22;3564;53.326;10.356;2022-08-19T08:47:34;22.60;99.90
7046;DHT22;3564;53.326;10.356;2022-08-19T08:50:08;22.60;99.90
7046;DHT22;3564;53.326;10.356;2022-08-19T08:52:41;22.50;99.90
7046;DHT22;3564;53.326;10.356;2022-08-19T08:55:25;22.60;99.90
7046;DHT22;3564;53.326;10.356;2022-08-19T08:57:58;22.60;99.90
7046;DHT22;3564;53.326;10.356;2022-08-19T09:00:32;22.60;99.90
7046;DHT22;3564;53.326;10.356;2022-08-19T09:02:59;22.60;99.90
7046;DHT22;3564;53.326;10.356;2022-08-19T09:05:50;22.60;99.90
7046;DHT22;3564;53.326;10.356;2022-08-19T09:08:39;22.60;99.90
7046;DHT22;3564;53.326;10.356;2022-08-19T09:11:15;22.60;99.90
7046;DHT22;3564;53.326;10.356;2022-08-19T09:16:22;22.70;99.90
7046;DHT22;3564;53.326;10.356;2022-08-19T09:18:54;22.70;99.90
7046;DHT22;3564;53.326;10.356;2022-08-19T09:21:22;22.70;99.90
7046;DHT22;3564;53.326;10.356;2022-08-19T09:23:49;22.80;99.90
7046;DHT22;3564;53.326;10.356;2022-08-19T09:26:19;22.80;99.90
7046;DHT22;3564;53.326;10.356;2022-08-19T09:28:46;22.80;99.90
7046;DHT22;3564;53.326;10.356;2022-08-19T09:31:15;22.90;99.90
7046;DHT22;3564;53.326;10.356;2022-08-19T09:33:40;22.90;99.90
7046;DHT22;3564;53.326;10.356;2022-08-19T09:36:10;22.90;99.90
7046;DHT22;3564;53.326;10.356;2022-08-19T09:38:37;22.90;99.90
7046;DHT22;3564;53.326;10.356;2022-08-19T09:41:09;22.90;99.90
7046;DHT22;3564;53.326;10.356;2022-08-19T09:43:36;22.90;99.90
7046;DHT22;3564;53.326;10.356;2022-08-19T09:46:04;22.90;99.90
7046;DHT22;3564;53.326;10.356;2022-08-19T09:48:32;22.90;99.90
7046;DHT22;3564;53.326;10.356;2022-08-19T09:51:09;22.90;99.90
7046;DHT22;3564;53.326;10.356;2022-08-19T09:53:36;22.90;99.90
7046;DHT22;3564;53.326;10.356;2022-08-19T09:56:05;22.90;99.90
7046;DHT22;3564;53.326;10.356;2022-08-19T09:58:33;22.90;99.90
7046;DHT22;3564;53.326;10.356;2022-08-19T10:01:01;22.90;99.90
7046;DHT22;3564;53.326;10.356;2022-08-19T10:03:28;22.90;99.90
7046;DHT22;3564;53.326;10.356;2022-08-19T10:05:55;22.90;99.90
7046;DHT22;3564;53.326;10.356;2022-08-19T10:08:28;22.90;99.90
7046;DHT22;3564;53.326;10.356;2022-08-19T10:11:09;22.90;99.90
7046;DHT22;3564;53.326;10.356;2022-08-19T10:13:35;22.90;99.90
7046;DHT22;3564;53.326;10.356;2022-08-19T10:16:09;22.90;99.90
7046;DHT22;3564;53.326;10.356;2022-08-19T10:18:37;22.90;99.90
7046;DHT22;3564;53.326;10.356;2022-08-19T10:21:09;22.90;99.90
7046;DHT22;3564;53.326;10.356;2022-08-19T10:23:37;23.00;99.90
7046;DHT22;3564;53.326;10.356;2022-08-19T10:26:04;23.00;99.90
7046;DHT22;3564;53.326;10.356;2022-08-19T10:28:32;23.10;99.90
7046;DHT22;3564;53.326;10.356;2022-08-19T10:30:58;23.20;99.90
7046;DHT22;3564;53.326;10.356;2022-08-19T10:33:24;23.20;99.90
7046;DHT22;3564;53.326;10.356;2022-08-19T10:36:00;23.30;99.90
7046;DHT22;3564;53.326;10.356;2022-08-19T10:38:26;23.40;99.90
7046;DHT22;3564;53.326;10.356;2022-08-19T10:40:51;23.40;99.90
7046;DHT22;3564;53.326;10.356;2022-08-19T10:43:18;23.40;99.90
7046;DHT22;3564;53.326;10.356;2022-08-19T10:45:51;23.50;99.90
7046;DHT22;3564;53.326;10.356;2022-08-19T10:48:17;23.50;99.90
7046;DHT22;3564;53.326;10.356;2022-08-19T10:50:42;23.50;99.90
7046;DHT22;3564;53.326;10.356;2022-08-19T10:53:26;23.60;99.90
7046;DHT22;3564;53.326;10.356;2022-08-19T10:55:52;23.50;99.90
7046;DHT22;3564;53.326;10.356;2022-08-19T10:58:36;23.50;99.90
7046;DHT22;3564;53.326;10.356;2022-08-19T11:01:02;23.50;99.90
7046;DHT22;3564;53.326;10.356;2022-08-19T11:03:27;23.50;99.90
7046;DHT22;3564;53.326;10.356;2022-08-19T11:05:59;23.60;99.90
7046;DHT22;3564;53.326;10.356;2022-08-19T11:08:25;23.60;99.90
7046;DHT22;3564;53.326;10.356;2022-08-19T11:10:53;23.60;99.90
7046;DHT22;3564;53.326;10.356;2022-08-19T11:13:29;23.50;99.90
7046;DHT22;3564;53.326;10.356;2022-08-19T11:16:07;23.50;99.90
7046;DHT22;3564;53.326;10.356;2022-08-19T11:18:36;23.50;99.90
7046;DHT22;3564;53.326;10.356;2022-08-19T11:21:09;23.50;99.90
7046;DHT22;3564;53.326;10.356;2022-08-19T11:23:36;23.60;99.90
7046;DHT22;3564;53.326;10.356;2022-08-19T11:26:01;23.60;99.90
7046;DHT22;3564;53.326;10.356;2022-08-19T11:28:27;23.60;99.90
7046;DHT22;3564;53.326;10.356;2022-08-19T11:30:52;23.60;99.90
7046;DHT22;3564;53.326;10.356;2022-08-19T11:33:18;23.60;99.90
7046;DHT22;3564;53.326;10.356;2022-08-19T11:35:44;23.60;99.90
7046;DHT22;3564;53.326;10.356;2022-08-19T11:38:10;23.60;99.90
7046;DHT22;3564;53.326;10.356;2022-08-19T11:40:36;23.70;99.90
7046;DHT22;3564;53.326;10.356;2022-08-19T11:43:03;23.70;99.90
7046;DHT22;3564;53.326;10.356;2022-08-19T11:45:29;23.80;99.90
7046;DHT22;3564;53.326;10.356;2022-08-19T11:47:55;23.80;99.90
7046;DHT22;3564;53.326;10.356;2022-08-19T11:50:21;23.90;99.90
7046;DHT22;3564;53.326;10.356;2022-08-19T11:52:48;24.00;99.90
7046;DHT22;3564;53.326;10.356;2022-08-19T11:55:15;24.00;99.90
7046;DHT22;3564;53.326;10.356;2022-08-19T11:57:41;24.00;99.90
7046;DHT22;3564;53.326;10.356;2022-08-19T12:00:09;24.00;99.90
7046;DHT22;3564;53.326;10.356;2022-08-19T12:02:36;24.10;99.90
7046;DHT22;3564;53.326;10.356;2022-08-19T12:05:02;24.10;99.90
7046;DHT22;3564;53.326;10.356;2022-08-19T12:07:29;24.10;99.90
7046;DHT22;3564;53.326;10.356;2022-08-19T12:09:58;24.10;99.90
7046;DHT22;3564;53.326;10.356;2022-08-19T12:12:24;24.10;99.90
7046;DHT22;3564;53.326;10.356;2022-08-19T12:14:50;24.20;99.90
7046;DHT22;3564;53.326;10.356;2022-08-19T12:17:23;24.10;99.90
7046;DHT22;3564;53.326;10.356;2022-08-19T12:19:48;24.10;99.90
7046;DHT22;3564;53.326;10.356;2022-08-19T12:22:14;24.10;99.90
7046;DHT22;3564;53.326;10.356;2022-08-19T12:24:40;24.10;99.90
7046;DHT22;3564;53.326;10.356;2022-08-19T12:27:06;24.10;99.90
7046;DHT22;3564;53.326;10.356;2022-08-19T12:29:32;24.00;99.90
7046;DHT22;3564;53.326;10.356;2022-08-19T12:31:59;24.00;99.90
7046;DHT22;3564;53.326;10.356;2022-08-19T12:34:28;24.00;99.90
7046;DHT22;3564;53.326;10.356;2022-08-19T12:36:58;24.00;99.90
7046;DHT22;3564;53.326;10.356;2022-08-19T12:39:26;24.00;99.90
7046;DHT22;3564;53.326;10.356;2022-08-19T12:41:51;24.00;99.90
7046;DHT22;3564;53.326;10.356;2022-08-19T12:44:18;24.00;99.90
7046;DHT22;3564;53.326;10.356;2022-08-19T12:46:43;24.00;99.90
7046;DHT22;3564;53.326;10.356;2022-08-19T12:49:09;24.00;99.90
7046;DHT22;3564;53.326;10.356;2022-08-19T12:51:35;24.10;99.90
7046;DHT22;3564;53.326;10.356;2022-08-19T12:54:02;24.10;99.90
7046;DHT22;3564;53.326;10.356;2022-08-19T12:56:29;24.10;99.90
7046;DHT22;3564;53.326;10.356;2022-08-19T12:58:54;24.20;99.90
7046;DHT22;3564;53.326;10.356;2022-08-19T13:01:21;24.20;99.90
7046;DHT22;3564;53.326;10.356;2022-08-19T13:03:46;24.20;99.90
7046;DHT22;3564;53.326;10.356;2022-08-19T13:06:13;24.30;99.90
7046;DHT22;3564;53.326;10.356;2022-08-19T13:08:39;24.30;99.90
7046;DHT22;3564;53.326;10.356;2022-08-19T13:11:15;24.40;99.90
7046;DHT22;3564;53.326;10.356;2022-08-19T13:13:44;24.40;99.90
7046;DHT22;3564;53.326;10.356;2022-08-19T13:16:11;24.30;99.90
7046;DHT22;3564;53.326;10.356;2022-08-19T13:18:37;24.30;99.90
7046;DHT22;3564;53.326;10.356;2022-08-19T13:21:08;24.30;99.90
7046;DHT22;3564;53.326;10.356;2022-08-19T13:23:35;24.40;99.90
7046;DHT22;3564;53.326;10.356;2022-08-19T13:26:03;24.50;99.90
7046;DHT22;3564;53.326;10.356;2022-08-19T13:28:31;24.60;99.90
7046;DHT22;3564;53.326;10.356;2022-08-19T13:31:19;24.70;99.90
7046;DHT22;3564;53.326;10.356;2022-08-19T13:34:03;24.80;99.90
7046;DHT22;3564;53.326;10.356;2022-08-19T13:36:29;25.00;99.90
7046;DHT22;3564;53.326;10.356;2022-08-19T13:38:55;25.20;99.90
7046;DHT22;3564;53.326;10.356;2022-08-19T13:41:22;25.30;99.90
7046;DHT22;3564;53.326;10.356;2022-08-19T13:43:47;25.40;99.90
7046;DHT22;3564;53.326;10.356;2022-08-19T13:46:14;25.60;99.90
7046;DHT22;3564;53.326;10.356;2022-08-19T13:48:41;25.60;99.90
7046;DHT22;3564;53.326;10.356;2022-08-19T13:51:08;25.70;99.90
7046;DHT22;3564;53.326;10.356;2022-08-19T13:53:37;25.70;99.90
7046;DHT22;3564;53.326;10.356;2022-08-19T13:56:11;25.80;99.90
7046;DHT22;3564;53.326;10.356;2022-08-19T13:58:53;25.80;99.90
7046;DHT22;3564;53.326;10.356;2022-08-19T14:01:23;25.80;99.90
7046;DHT22;3564;53.326;10.356;2022-08-19T14:03:49;25.80;99.90
7046;DHT22;3564;53.326;10.356;2022-08-19T14:06:15;25.80;99.90
7046;DHT22;3564;53.326;10.356;2022-08-19T14:08:42;25.80;99.90
7046;DHT22;3564;53.326;10.356;2022-08-19T14:11:09;25.70;99.90
7046;DHT22;3564;53.326;10.356;2022-08-19T14:13:34;25.70;99.90
7046;DHT22;3564;53.326;10.356;2022-08-19T14:16:00;25.70;99.90
7046;DHT22;3564;53.326;10.356;2022-08-19T14:18:26;25.70;99.90
7046;DHT22;3564;53.326;10.356;2022-08-19T14:20:52;25.80;99.90
7046;DHT22;3564;53.326;10.356;2022-08-19T14:23:18;25.70;99.90
7046;DHT22;3564;53.326;10.356;2022-08-19T14:25:44;25.70;99.90
7046;DHT22;3564;53.326;10.356;2022-08-19T14:28:10;25.70;99.90
7046;DHT22;3564;53.326;10.356;2022-08-19T14:30:37;25.70;99.90
7046;DHT22;3564;53.326;10.356;2022-08-19T14:33:04;25.70;99.90
7046;DHT22;3564;53.326;10.356;2022-08-19T14:35:32;25.80;99.90
7046;DHT22;3564;53.326;10.356;2022-08-19T14:38:05;25.70;99.90
7046;DHT22;3564;53.326;10.356;2022-08-19T14:40:31;25.80;99.90
7046;DHT22;3564;53.326;10.356;2022-08-19T14:42:59;25.80;99.90
7046;DHT22;3564;53.326;10.356;2022-08-19T14:45:28;25.90;99.90
7046;DHT22;3564;53.326;10.356;2022-08-19T14:47:54;25.90;99.90
7046;DHT22;3564;53.326;10.356;2022-08-19T14:50:19;25.90;99.90
7046;DHT22;3564;53.326;10.356;2022-08-19T14:52:49;25.90;99.90
7046;DHT22;3564;53.326;10.356;2022-08-19T14:55:16;26.00;99.90
7046;DHT22;3564;53.326;10.356;2022-08-19T14:57:43;26.00;99.90
7046;DHT22;3564;53.326;10.356;2022-08-19T15:00:10;26.00;99.90
7046;DHT22;3564;53.326;10.356;2022-08-19T15:02:42;26.00;99.90
7046;DHT22;3564;53.326;10.356;2022-08-19T15:05:09;26.00;99.90
7046;DHT22;3564;53.326;10.356;2022-08-19T15:07:36;26.00;99.80
7046;DHT22;3564;53.326;10.356;2022-08-19T15:10:03;26.00;99.90
7046;DHT22;3564;53.326;10.356;2022-08-19T15:12:29;26.00;99.90
7046;DHT22;3564;53.326;10.356;2022-08-19T15:14:56;26.00;99.90
7046;DHT22;3564;53.326;10.356;2022-08-19T15:17:21;26.00;99.80
7046;DHT22;3564;53.326;10.356;2022-08-19T15:19:47;26.00;99.80
7046;DHT22;3564;53.326;10.356;2022-08-19T15:22:13;26.00;99.90
7046;DHT22;3564;53.326;10.356;2022-08-19T15:24:39;26.10;99.90
7046;DHT22;3564;53.326;10.356;2022-08-19T15:27:05;26.00;99.90
7046;DHT22;3564;53.326;10.356;2022-08-19T15:29:31;26.00;99.90
7046;DHT22;3564;53.326;10.356;2022-08-19T15:31:57;26.00;99.90
7046;DHT22;3564;53.326;10.356;2022-08-19T15:34:24;26.10;99.80
7046;DHT22;3564;53.326;10.356;2022-08-19T15:36:51;26.10;99.80
7046;DHT22;3564;53.326;10.356;2022-08-19T15:39:17;26.20;99.80
7046;DHT22;3564;53.326;10.356;2022-08-19T15:41:44;26.20;99.60
7046;DHT22;3564;53.326;10.356;2022-08-19T15:44:13;26.20;99.60
7046;DHT22;3564;53.326;10.356;2022-08-19T15:46:41;26.40;99.90
7046;DHT22;3564;53.326;10.356;2022-08-19T15:49:07;26.80;99.80
7046;DHT22;3564;53.326;10.356;2022-08-19T15:51:35;27.30;98.60
7046;DHT22;3564;53.326;10.356;2022-08-19T15:54:08;27.80;98.20
7046;DHT22;3564;53.326;10.356;2022-08-19T15:56:34;28.50;97.50
7046;DHT22;3564;53.326;10.356;2022-08-19T15:59:18;29.10;96.50